Time;durP1;ratioP1;P1;durP2;ratioP2;P2;SDS_P1;SDS_P2;PMS_P1;PMS_P2;Temp;Humidity;BMP_temperature;BMP_pressure;BME280_temperature;BME280_humidity;BME280_pressure;Samples;Min_cycle;Max_cycle;Signal;HPM_P1;HPM_P2
2021/06/07 00:02:46;;;;;;;27.48;24.85;;;17.20;99.90;;;18.53;100.00;100722.06;5093869;27;20543;-60
2021/06/07 00:05:59;;;;;;;27.33;24.60;;;17.20;99.90;;;18.54;100.00;100727.31;5092485;27;20398;-59
2021/06/07 00:09:12;;;;;;;26.90;24.40;;;17.20;99.90;;;18.49;100.00;100732.47;5092410;27;20619;-60
2021/06/07 00:12:26;;;;;;;26.80;24.27;;;17.20;99.90;;;18.42;100.00;100737.00;5091545;27;20218;-59
2021/06/07 00:15:40;;;;;;;28.55;25.88;;;17.10;99.90;;;18.40;100.00;100741.78;5091685;27;20612;-60
2021/06/07 00:18:53;;;;;;;28.25;25.60;;;17.10;99.90;;;18.35;100.00;100746.13;5090718;27;20235;-60
2021/06/07 00:22:06;;;;;;;29.83;26.73;;;17.10;99.90;;;18.30;100.00;100755.66;5091392;27;20216;-60
2021/06/07 00:25:18;;;;;;;29.73;27.02;;;17.10;99.90;;;18.26;100.00;100756.28;5091264;27;20254;-58
2021/06/07 00:28:30;;;;;;;29.42;26.63;;;17.00;99.90;;;18.21;100.00;100759.56;5091790;27;20546;-58
2021/06/07 00:31:42;;;;;;;30.70;27.60;;;17.00;99.90;;;18.26;100.00;100754.41;5091731;27;20324;-59
2021/06/07 00:34:53;;;;;;;30.77;27.90;;;17.00;99.90;;;18.24;100.00;100763.75;5091845;27;20315;-58
2021/06/07 00:38:06;;;;;;;31.67;28.52;;;16.90;99.90;;;18.25;100.00;100768.97;5091339;27;20247;-59
2021/06/07 00:41:19;;;;;;;34.30;30.98;;;16.90;99.90;;;18.20;100.00;100765.16;5091352;27;20208;-58
2021/06/07 00:44:35;;;;;;;34.08;30.55;;;16.90;99.90;;;18.18;100.00;100767.22;5091537;27;20203;-58
2021/06/07 00:47:46;;;;;;;34.55;30.95;;;16.90;99.90;;;18.19;100.00;100771.63;5091313;27;20454;-60
2021/06/07 00:51:02;;;;;;;34.53;31.15;;;16.80;99.90;;;18.16;100.00;100770.16;5091160;27;20944;-58
2021/06/07 00:54:15;;;;;;;37.45;33.55;;;16.80;99.90;;;18.08;100.00;100772.16;5091075;27;20255;-58
2021/06/07 00:57:26;;;;;;;39.05;34.95;;;16.80;99.90;;;18.05;100.00;100773.38;5091388;27;20284;-55
2021/06/07 01:00:50;;;;;;;44.42;39.55;;;16.70;99.90;;;18.12;100.00;100776.16;5090866;27;20756;-61
2021/06/07 01:04:08;;;;;;;40.88;36.42;;;16.70;99.90;;;18.16;100.00;100772.88;5091428;27;20216;-58
2021/06/07 01:07:19;;;;;;;45.15;38.85;;;16.80;99.90;;;18.23;100.00;100773.75;5091062;27;20255;-60
2021/06/07 01:10:33;;;;;;;40.97;36.60;;;16.80;99.90;;;18.29;100.00;100782.97;5106792;27;20538;-59
2021/06/07 01:17:20;;;;;;;49.80;41.15;;;17.00;99.90;;;18.45;100.00;100787.25;5088674;27;20717;-61
2021/06/07 01:20:34;;;;;;;47.70;41.17;;;17.10;99.90;;;18.38;100.00;100789.91;5090628;27;20977;-59
2021/06/07 01:23:47;;;;;;;47.70;40.95;;;17.20;99.90;;;18.45;100.00;100788.09;5091425;27;20211;-59
2021/06/07 01:26:58;;;;;;;46.63;40.60;;;17.30;99.90;;;18.55;100.00;100787.72;5090414;27;20382;-60
2021/06/07 01:30:13;;;;;;;49.60;40.88;;;17.30;99.90;;;18.47;100.00;100796.03;5090230;27;20789;-57
2021/06/07 01:33:27;;;;;;;49.15;41.47;;;17.40;99.90;;;18.48;100.00;100795.81;5090812;27;20224;-60
2021/06/07 01:36:45;;;;;;;46.10;39.25;;;17.40;99.90;;;18.47;100.00;100791.44;5090562;27;20215;-60
2021/06/07 01:39:57;;;;;;;49.58;40.53;;;17.50;99.90;;;18.56;100.00;100795.66;5090620;27;20682;-59
2021/06/07 01:43:20;;;;;;;45.92;39.47;;;17.50;99.90;;;18.51;100.00;100798.16;5075279;27;20917;-60
2021/06/07 01:46:32;;;;;;;49.40;39.58;;;17.50;99.90;;;18.63;100.00;100795.75;5089875;27;20543;-60
2021/06/07 01:49:43;;;;;;;45.08;38.65;;;17.50;99.90;;;18.63;100.00;100795.75;5090863;27;20239;-60
2021/06/07 01:52:55;;;;;;;49.05;40.78;;;17.50;99.90;;;18.64;100.00;100795.56;5090558;27;20701;-60
2021/06/07 01:56:12;;;;;;;45.38;38.60;;;17.60;99.90;;;18.65;100.00;100796.41;5089510;27;20223;-59
2021/06/07 01:59:23;;;;;;;48.90;38.88;;;17.60;99.90;;;18.62;100.00;100799.50;5089962;27;20311;-57
2021/06/07 02:02:34;;;;;;;43.65;35.63;;;17.60;99.90;;;18.72;100.00;100799.16;5090054;27;20330;-59
2021/06/07 02:05:49;;;;;;;44.47;38.00;;;17.60;99.90;;;18.69;100.00;100802.25;5090091;27;20219;-60
2021/06/07 02:09:00;;;;;;;41.67;35.95;;;17.70;99.90;;;18.81;100.00;100801.50;5089841;27;20697;-60
2021/06/07 02:12:13;;;;;;;41.45;36.95;;;17.70;99.90;;;18.76;100.00;100800.44;5089774;27;20251;-60
2021/06/07 02:15:25;;;;;;;41.58;36.38;;;17.80;99.90;;;18.71;100.00;100797.47;5089311;27;20232;-59
2021/06/07 02:18:38;;;;;;;44.53;34.88;;;17.80;99.90;;;18.70;100.00;100799.34;5089018;27;20783;-60
2021/06/07 02:21:50;;;;;;;40.50;34.95;;;17.80;99.90;;;18.73;100.00;100796.25;5089345;27;20220;-60
2021/06/07 02:25:08;;;;;;;43.30;36.88;;;17.80;99.90;;;18.99;100.00;100799.09;5089753;27;20239;-60
2021/06/07 02:28:22;;;;;;;38.70;34.53;;;17.80;99.90;;;18.70;100.00;100793.91;5068832;28;20307;-59
2021/06/07 02:31:47;;;;;;;38.65;34.47;;;17.90;99.90;;;19.00;100.00;100791.81;5057870;28;20300;-58
2021/06/07 02:34:58;;;;;;;37.97;33.88;;;17.80;99.90;;;19.10;100.00;100800.41;5069087;28;20227;-60
2021/06/07 02:38:36;;;;;;;38.63;34.50;;;17.80;99.90;;;18.74;100.00;100805.22;5068668;28;20218;-60
2021/06/07 02:41:47;;;;;;;37.92;33.88;;;17.80;99.90;;;18.77;100.00;100807.53;4965585;28;20208;-59
2021/06/07 02:48:44;;;;;;;36.30;32.50;;;17.80;99.90;;;18.84;100.00;100809.22;5066831;28;20549;-60
2021/06/07 02:55:34;;;;;;;35.10;30.52;;;17.90;99.90;;;18.79;100.00;100805.47;5066598;28;20235;-59
2021/06/07 02:58:47;;;;;;;37.53;33.03;;;17.90;99.90;;;18.67;100.00;100813.28;5068585;28;20486;-59
2021/06/07 03:02:00;;;;;;;34.58;30.98;;;18.00;99.90;;;18.73;100.00;100815.22;5069012;28;20225;-59
2021/06/07 03:05:24;;;;;;;35.78;31.98;;;18.00;99.90;;;18.85;100.00;100810.06;5068464;28;20741;-60
2021/06/07 03:08:41;;;;;;;36.42;32.55;;;18.00;99.90;;;18.61;100.00;100806.78;5066728;28;20323;-60
2021/06/07 03:11:52;;;;;;;33.20;29.55;;;17.90;99.90;;;18.72;100.00;100813.53;5068510;28;20650;-60
2021/06/07 03:15:03;;;;;;;34.97;31.35;;;17.90;99.90;;;18.93;100.00;100818.03;5068286;28;20216;-60
2021/06/07 03:18:28;;;;;;;35.17;31.42;;;17.80;99.90;;;18.64;100.00;100806.41;5068144;28;20602;-60
2021/06/07 03:21:40;;;;;;;33.92;30.38;;;17.80;99.90;;;18.65;100.00;100807.25;5069003;28;20433;-60
2021/06/07 03:24:51;;;;;;;35.92;31.05;;;17.80;99.90;;;18.58;100.00;100804.47;5068961;28;20629;-58
2021/06/07 03:28:04;;;;;;;36.38;32.42;;;17.80;99.90;;;18.49;100.00;100808.34;5045293;28;20419;-60
2021/06/07 03:31:16;;;;;;;36.75;32.78;;;17.70;99.90;;;18.47;100.00;100810.41;5048536;28;20205;-57
2021/06/07 03:34:29;;;;;;;35.17;31.52;;;17.70;99.90;;;18.46;100.00;100819.56;5048398;28;20213;-60
2021/06/07 03:37:40;;;;;;;36.83;32.58;;;17.60;99.90;;;18.43;100.00;100819.94;5048371;28;21125;-61
2021/06/07 03:44:44;;;;;;;32.47;29.05;;;17.50;99.90;;;18.54;100.00;100824.03;5046777;28;20651;-60
2021/06/07 03:48:02;;;;;;;33.20;29.83;;;17.50;99.90;;;18.51;100.00;100824.41;5047144;28;20327;-59
2021/06/07 03:51:15;;;;;;;34.05;30.55;;;17.50;99.90;;;18.48;100.00;100828.34;5048296;28;20583;-60
2021/06/07 03:54:26;;;;;;;34.53;31.02;;;17.50;99.90;;;18.48;100.00;100830.22;5047586;28;20602;-59
2021/06/07 03:57:49;;;;;;;34.53;30.85;;;17.60;99.90;;;18.79;100.00;100835.28;5047293;28;20248;-58
2021/06/07 04:01:01;;;;;;;36.53;32.83;;;17.60;99.90;;;18.65;100.00;100837.91;5047545;28;20590;-60
2021/06/07 04:04:33;;;;;;;32.55;28.98;;;17.70;99.90;;;18.74;100.00;100835.03;5047058;28;20316;-61
2021/06/07 04:07:46;;;;;;;33.20;29.75;;;17.70;99.90;;;18.93;100.00;100835.16;5036725;28;20511;-61
2021/06/07 04:11:23;;;;;;;33.65;30.17;;;17.80;99.90;;;18.96;100.00;100829.34;5047659;28;20260;-59
2021/06/07 04:14:34;;;;;;;30.48;27.38;;;17.80;99.90;;;19.04;100.00;100824.81;5047999;28;20462;-61
2021/06/07 04:17:45;;;;;;;32.97;29.27;;;18.00;99.90;;;19.05;100.00;100824.56;5049170;28;20413;-59
2021/06/07 04:20:57;;;;;;;32.45;29.17;;;18.10;99.90;;;19.01;100.00;100826.03;5067987;28;21067;-59
2021/06/07 04:24:09;;;;;;;31.65;28.45;;;18.20;99.90;;;19.06;100.00;100826.25;5067892;28;20240;-61
2021/06/07 04:27:45;;;;;;;32.22;28.65;;;18.30;99.90;;;19.15;100.00;100827.78;5087713;27;20464;-59
2021/06/07 04:30:58;;;;;;;32.13;28.88;;;18.30;99.90;;;19.05;100.00;100826.44;5039777;27;20577;-61
2021/06/07 04:34:09;;;;;;;33.63;30.17;;;18.30;99.90;;;18.91;100.00;100823.69;5091865;27;20204;-59
2021/06/07 04:37:20;;;;;;;32.65;28.55;;;18.40;99.90;;;19.16;100.00;100837.59;5091894;27;20455;-59
2021/06/07 04:40:36;;;;;;;32.92;29.58;;;18.40;99.90;;;19.30;100.00;100835.75;5098480;27;20295;-60
2021/06/07 04:43:48;;;;;;;32.88;29.42;;;18.50;99.90;;;19.23;100.00;100833.03;5099623;27;20212;-61
2021/06/07 04:46:59;;;;;;;31.75;28.42;;;18.60;99.90;;;19.14;100.00;100830.69;5089474;27;20211;-59
2021/06/07 04:50:11;;;;;;;33.97;30.42;;;18.60;99.90;;;18.97;100.00;100835.59;5084792;27;20254;-60
2021/06/07 04:53:24;;;;;;;35.58;31.77;;;18.60;99.90;;;19.10;100.00;100827.53;5089227;27;20227;-60
2021/06/07 04:56:37;;;;;;;34.25;30.67;;;18.60;99.90;;;19.19;100.00;100833.63;5084261;27;20507;-58
2021/06/07 04:59:48;;;;;;;33.70;30.23;;;18.60;99.90;;;19.49;100.00;100836.94;5088943;27;20550;-59
2021/06/07 05:02:59;;;;;;;35.15;31.40;;;18.70;99.90;;;19.13;100.00;100832.56;5083635;27;20227;-58
2021/06/07 05:06:11;;;;;;;35.35;31.60;;;18.80;99.90;;;19.12;100.00;100827.34;5089134;27;20211;-60
2021/06/07 05:09:34;;;;;;;35.53;31.63;;;18.80;99.90;;;18.96;100.00;100823.91;5090787;27;20763;-57
2021/06/07 05:12:47;;;;;;;35.78;31.83;;;18.80;99.90;;;19.14;100.00;100828.81;5090852;27;20431;-60
2021/06/07 05:15:58;;;;;;;32.38;29.17;;;18.80;99.90;;;19.13;100.00;100818.16;5091209;27;20425;-59
2021/06/07 05:19:09;;;;;;;33.20;29.80;;;18.80;99.90;;;19.26;100.00;100827.22;5091302;27;20532;-60
2021/06/07 05:22:20;;;;;;;33.53;29.67;;;18.80;99.90;;;19.63;100.00;100836.78;5089871;27;20243;-60
2021/06/07 05:25:32;;;;;;;33.75;30.08;;;18.80;99.90;;;19.44;100.00;100828.50;5090376;27;20508;-60
2021/06/07 05:28:46;;;;;;;34.42;30.85;;;18.90;99.90;;;19.32;100.00;100839.94;5090773;27;20647;-60
2021/06/07 05:31:57;;;;;;;34.45;30.85;;;19.00;99.90;;;19.63;100.00;100830.50;5090710;27;20327;-61
2021/06/07 05:35:22;;;;;;;32.42;28.98;;;19.00;99.90;;;19.43;100.00;100829.56;5101529;27;20223;-60
2021/06/07 05:38:34;;;;;;;32.88;29.50;;;19.10;99.90;;;19.79;100.00;100829.28;5090104;27;20684;-58
2021/06/07 05:41:46;;;;;;;33.35;29.85;;;19.20;99.90;;;19.76;100.00;100835.16;5091362;27;20381;-59
2021/06/07 05:44:58;;;;;;;31.50;28.10;;;19.40;99.90;;;19.70;100.00;100831.34;5091584;27;20682;-58
2021/06/07 05:48:10;;;;;;;32.85;29.45;;;19.50;99.90;;;19.66;100.00;100816.50;5091297;27;20215;-58
2021/06/07 05:51:21;;;;;;;31.10;28.02;;;19.50;99.90;;;20.01;100.00;100828.94;5090648;27;20207;-58
2021/06/07 05:54:32;;;;;;;29.92;26.92;;;19.50;99.90;;;19.86;100.00;100828.28;5089980;27;20459;-59
2021/06/07 05:57:43;;;;;;;33.13;28.60;;;19.60;99.90;;;20.25;100.00;100832.09;5090413;27;20474;-60
2021/06/07 06:01:00;;;;;;;29.67;26.77;;;19.70;99.90;;;20.55;100.00;100821.66;5090598;27;20502;-59
2021/06/07 06:04:35;;;;;;;30.67;27.48;;;19.90;99.90;;;20.92;100.00;100818.25;5083992;27;20218;-59
2021/06/07 06:07:46;;;;;;;31.38;28.08;;;20.00;99.90;;;20.60;100.00;100828.16;5079383;27;20262;-60
2021/06/07 06:11:34;;;;;;;29.60;26.70;;;20.20;99.90;;;20.35;100.00;100829.78;5074142;27;20204;-58
2021/06/07 06:21:49;;;;;;;29.42;26.48;;;20.50;99.90;;;21.33;100.00;100822.56;5049949;28;20409;-60
2021/06/07 06:29:34;;;;;;;28.25;25.45;;;20.80;99.90;;;21.19;100.00;100818.22;4985889;28;20565;-60
2021/06/07 06:36:46;;;;;;;27.73;25.13;;;21.00;99.90;;;21.39;100.00;100816.25;5064958;28;20250;-60
2021/06/07 06:39:57;;;;;;;27.35;24.45;;;21.20;99.90;;;21.99;100.00;100822.25;5052571;28;20205;-59
2021/06/07 06:43:09;;;;;;;26.80;24.00;;;21.40;99.90;;;21.98;100.00;100826.84;5048434;28;20212;-60
2021/06/07 06:46:20;;;;;;;27.02;24.33;;;21.60;99.90;;;22.11;100.00;100825.94;5048893;28;20201;-59
2021/06/07 07:00:01;;;;;;;23.65;21.42;;;22.60;99.90;;;22.59;100.00;100818.00;5068555;28;20549;-58
2021/06/07 07:03:12;;;;;;;24.40;22.00;;;22.90;99.90;;;22.70;100.00;100819.97;5069229;28;20212;-60
2021/06/07 07:06:24;;;;;;;24.25;21.83;;;23.10;99.90;;;22.93;100.00;100825.66;5067729;28;20839;-60
2021/06/07 07:09:38;;;;;;;23.15;20.95;;;23.20;99.30;;;22.69;100.00;100821.03;5069168;28;20204;-60
2021/06/07 07:12:50;;;;;;;22.73;20.48;;;23.30;97.50;;;23.09;100.00;100826.13;5068520;28;20858;-59
2021/06/07 07:16:01;;;;;;;21.52;19.52;;;23.30;96.90;;;22.65;100.00;100825.25;5066992;28;20398;-59
2021/06/07 07:19:12;;;;;;;22.23;20.15;;;23.50;96.60;;;22.71;100.00;100824.38;5062919;27;20282;-62
2021/06/07 07:22:24;;;;;;;21.35;19.38;;;23.80;95.30;;;23.19;100.00;100823.69;5068919;27;20232;-60
2021/06/07 07:25:39;;;;;;;20.00;18.02;;;24.00;93.70;;;23.46;100.00;100827.78;5064606;28;20538;-61
2021/06/07 07:28:50;;;;;;;20.95;18.73;;;24.30;91.90;;;23.89;100.00;100832.25;5068128;28;20733;-59
2021/06/07 07:32:01;;;;;;;19.65;17.88;;;24.40;91.40;;;24.27;100.00;100830.00;5081467;27;20461;-61
2021/06/07 07:35:13;;;;;;;18.70;16.95;;;24.70;90.60;;;24.30;100.00;100826.81;5088618;27;20338;-61
2021/06/07 07:38:24;;;;;;;21.33;19.23;;;25.00;89.80;;;23.73;100.00;100827.47;5088642;27;20239;-61
2021/06/07 07:41:37;;;;;;;20.60;18.60;;;25.30;86.20;;;23.99;100.00;100830.63;5076839;27;20637;-59
2021/06/07 07:44:49;;;;;;;21.17;19.10;;;25.40;84.50;;;23.20;100.00;100836.28;5068355;28;20258;-61
2021/06/07 07:48:00;;;;;;;21.13;18.95;;;25.40;82.70;;;23.03;100.00;100818.81;5068081;28;20697;-61
2021/06/07 07:51:12;;;;;;;21.70;19.70;;;25.40;81.80;;;23.92;100.00;100821.69;5049815;28;20413;-61
2021/06/07 07:54:23;;;;;;;18.88;17.17;;;25.40;81.10;;;23.83;100.00;100823.09;5067935;28;20273;-61
2021/06/07 07:57:36;;;;;;;19.10;17.25;;;25.50;79.20;;;24.65;100.00;100824.09;5067761;28;20209;-62
2021/06/07 08:00:50;;;;;;;19.42;17.63;;;25.60;79.70;;;24.42;100.00;100824.09;5085788;27;20678;-61
2021/06/07 08:04:01;;;;;;;19.02;17.25;;;25.70;79.00;;;25.21;100.00;100825.41;5092066;27;20630;-62
2021/06/07 08:07:12;;;;;;;19.27;17.55;;;25.80;79.00;;;24.98;100.00;100829.00;5096243;27;20218;-60
2021/06/07 08:10:24;;;;;;;21.05;18.85;;;26.10;78.10;;;24.55;100.00;100832.09;5094571;27;20620;-61
2021/06/07 08:13:37;;;;;;;20.00;17.15;;;26.30;74.90;;;24.68;100.00;100826.38;5092789;27;20456;-62
2021/06/07 08:16:48;;;;;;;20.30;18.40;;;26.40;74.10;;;25.10;100.00;100820.75;5078455;27;20979;-59
2021/06/07 08:19:59;;;;;;;19.15;17.35;;;26.60;73.60;;;24.91;100.00;100820.06;5051401;28;20393;-61
2021/06/07 08:23:11;;;;;;;19.90;18.00;;;26.80;73.20;;;24.60;100.00;100820.44;5063906;28;20719;-61
2021/06/07 08:26:22;;;;;;;19.88;18.00;;;26.80;71.80;;;24.02;100.00;100817.56;5068968;28;20239;-62
2021/06/07 08:29:35;;;;;;;18.92;16.95;;;26.80;70.50;;;25.21;100.00;100821.84;5051402;28;20209;-61
2021/06/07 08:32:46;;;;;;;21.30;19.45;;;26.90;70.80;;;24.81;100.00;100822.56;5059550;28;20567;-60
2021/06/07 08:35:58;;;;;;;20.10;18.23;;;27.00;69.60;;;25.76;100.00;100820.25;5070376;28;20244;-62
2021/06/07 08:39:10;;;;;;;18.55;16.73;;;27.00;69.40;;;25.51;100.00;100814.25;5071187;28;20635;-61
2021/06/07 08:42:21;;;;;;;20.17;18.13;;;27.20;68.80;;;25.44;100.00;100823.69;5062748;28;20248;-62
2021/06/07 08:45:37;;;;;;;18.45;16.70;;;27.40;66.90;;;25.95;100.00;100817.31;5070620;28;20274;-62
2021/06/07 08:48:48;;;;;;;17.98;15.40;;;27.50;67.10;;;26.51;100.00;100819.13;5062021;28;20351;-62
2021/06/07 08:52:00;;;;;;;19.17;17.40;;;27.70;66.10;;;27.17;100.00;100818.19;5070613;28;20490;-61
2021/06/07 08:55:11;;;;;;;18.10;16.52;;;28.00;65.20;;;27.38;100.00;100822.03;5065573;28;20331;-62
2021/06/07 08:58:34;;;;;;;17.65;16.05;;;28.50;63.50;;;26.10;100.00;100812.91;5068925;27;20219;-61
2021/06/07 09:01:47;;;;;;;17.95;16.25;;;28.70;60.30;;;26.10;100.00;100812.91;5076817;27;20444;-61
2021/06/07 09:05:05;;;;;;;18.10;16.50;;;28.80;59.50;;;26.62;100.00;100818.19;5084144;27;20721;-62
2021/06/07 09:08:36;;;;;;;17.48;15.77;;;29.00;58.90;;;27.71;100.00;100811.97;5088428;27;20224;-62
2021/06/07 09:11:56;;;;;;;16.33;14.93;;;29.30;58.40;;;26.47;100.00;100812.44;5050053;28;20570;-60
2021/06/07 09:15:15;;;;;;;16.67;14.98;;;29.60;56.80;;;27.35;100.00;100817.03;5070042;28;20208;-60
2021/06/07 09:22:03;;;;;;;15.98;14.32;;;30.10;55.70;;;27.28;100.00;100815.56;5051608;27;20600;-60
2021/06/07 09:25:30;;;;;;;16.60;15.10;;;30.20;54.00;;;26.72;100.00;100812.84;5074774;27;20796;-60
2021/06/07 09:28:41;;;;;;;17.30;15.50;;;30.20;53.00;;;25.46;100.00;100816.06;5090197;27;20227;-60
2021/06/07 09:31:55;;;;;;;16.00;14.25;;;30.00;52.70;;;25.76;100.00;100806.53;5091214;27;20212;-60
2021/06/07 09:35:27;;;;;;;15.60;14.13;;;29.80;52.80;;;26.51;100.00;100804.56;5089365;27;20220;-61
2021/06/07 09:38:55;;;;;;;14.15;12.85;;;29.70;52.00;;;27.48;100.00;100799.31;5089570;27;20231;-61
2021/06/07 09:42:13;;;;;;;13.32;12.10;;;29.70;52.50;;;27.91;100.00;100798.47;5066421;27;20281;-60
2021/06/07 09:45:25;;;;;;;12.30;11.15;;;29.90;52.30;;;29.20;100.00;100794.44;5071107;27;20589;-60
2021/06/07 09:48:55;;;;;;;13.02;11.80;;;30.30;51.80;;;28.04;100.00;100802.69;5069023;27;20236;-61
2021/06/07 09:52:13;;;;;;;12.93;11.82;;;30.80;50.00;;;28.43;100.00;100801.44;5069392;28;20556;-62
2021/06/07 09:55:47;;;;;;;13.23;12.02;;;31.00;49.40;;;27.76;100.00;100799.13;5070634;27;20940;-62
2021/06/07 09:58:59;;;;;;;12.32;11.15;;;31.30;48.50;;;29.08;100.00;100794.69;5037080;28;20229;-60
2021/06/07 10:02:12;;;;;;;13.25;11.60;;;31.50;48.00;;;29.05;100.00;100786.97;5069028;27;20216;-60
2021/06/07 10:09:56;;;;;;;12.40;11.30;;;32.10;46.90;;;28.62;100.00;100784.47;5008198;28;20221;-61
2021/06/07 10:13:12;;;;;;;13.05;11.98;;;32.60;45.30;;;27.80;100.00;100786.53;5068607;28;20224;-61
2021/06/07 10:16:27;;;;;;;12.05;11.05;;;32.60;43.30;;;27.91;100.00;100792.13;5069088;28;20228;-61
2021/06/07 10:23:42;;;;;;;11.73;10.63;;;32.00;44.10;;;29.05;100.00;100784.22;5060189;27;20275;-61
2021/06/07 10:26:54;;;;;;;12.27;11.15;;;32.10;43.70;;;29.28;100.00;100782.94;5069182;27;20337;-62
2021/06/07 10:30:07;;;;;;;12.38;11.25;;;32.40;43.90;;;29.15;100.00;100781.50;5069852;28;20480;-61
2021/06/07 10:33:50;;;;;;;12.57;11.02;;;32.80;42.90;;;29.82;100.00;100774.25;5069419;27;20366;-62
2021/06/07 10:37:19;;;;;;;10.90;9.88;;;33.30;42.40;;;29.15;100.00;100780.66;5068911;28;20591;-62
2021/06/07 10:44:13;;;;;;;10.88;9.88;;;33.90;40.00;;;29.01;100.00;100777.56;5047601;27;20542;-62
2021/06/07 10:47:31;;;;;;;11.73;10.55;;;33.80;40.00;;;29.33;100.00;100771.91;5067891;28;20261;-62
2021/06/07 10:50:57;;;;;;;10.20;9.20;;;33.90;39.90;;;29.63;100.00;100772.03;5088382;27;20583;-62
2021/06/07 10:54:15;;;;;;;9.35;8.60;;;33.90;39.50;;;29.24;100.00;100765.25;5089150;27;20241;-62
2021/06/07 10:57:56;;;;;;;9.50;8.80;;;33.90;38.80;;;30.03;100.00;100756.69;5086751;27;20579;-62
2021/06/07 11:01:18;;;;;;;8.88;8.02;;;34.30;39.20;;;30.82;100.00;100761.53;5023896;28;20602;-62
2021/06/07 11:04:37;;;;;;;9.27;7.47;;;34.60;38.20;;;30.11;99.77;100758.03;5087372;27;20224;-62
2021/06/07 11:07:48;;;;;;;9.20;8.25;;;35.00;36.30;;;30.50;95.61;100755.53;5071663;27;20331;-62
2021/06/07 11:11:05;;;;;;;8.55;7.85;;;35.10;36.00;;;29.77;94.90;100758.56;5081478;27;20990;-62
2021/06/07 11:14:29;;;;;;;9.93;9.10;;;35.50;35.40;;;27.23;100.00;100757.81;5068730;27;20654;-63
2021/06/07 11:29:13;;;;;;;8.63;7.93;;;34.70;36.10;;;29.86;100.00;100743.09;5084217;27;20546;-62
2021/06/07 11:32:42;;;;;;;8.18;7.25;;;35.10;35.40;;;29.98;100.00;100740.09;5088193;27;20432;-62
2021/06/07 11:36:12;;;;;;;7.38;6.78;;;35.40;35.40;;;29.65;90.32;100733.16;5072152;27;20219;-62
2021/06/07 11:39:29;;;;;;;8.05;7.35;;;35.70;33.70;;;29.31;93.62;100732.75;5088554;27;20232;-62
2021/06/07 11:42:42;;;;;;;6.57;6.13;;;35.90;32.80;;;30.19;87.73;100736.22;5088346;27;20484;-62
2021/06/07 11:46:06;;;;;;;7.07;6.35;;;35.90;33.10;;;29.78;91.11;100729.03;5089200;27;20477;-63
2021/06/07 11:49:34;;;;;;;6.88;6.32;;;36.00;32.20;;;29.71;90.16;100726.53;5088329;27;20991;-62
2021/06/07 11:53:03;;;;;;;6.68;6.07;;;36.20;31.50;;;31.48;79.69;100730.88;5088700;27;20570;-62
2021/06/07 11:56:21;;;;;;;5.72;5.22;;;36.40;32.40;;;30.64;70.01;100715.22;5080850;27;20227;-62
2021/06/07 12:00:01;;;;;;;6.15;5.65;;;36.80;31.20;;;30.34;76.42;100713.31;5068674;27;20215;-60
2021/06/07 12:03:22;;;;;;;7.28;5.45;;;37.20;30.60;;;30.95;81.66;100713.97;5014847;27;20263;-62
2021/06/07 12:06:43;;;;;;;7.68;6.10;;;37.50;30.00;;;29.57;80.69;100712.44;5079313;27;20439;-62
2021/06/07 12:09:58;;;;;;;6.15;5.65;;;37.80;29.60;;;31.25;76.92;100715.81;5087398;27;20322;-62
2021/06/07 12:13:15;;;;;;;7.80;6.03;;;37.70;30.00;;;31.60;73.54;100717.50;5087292;27;20326;-62
2021/06/07 12:16:30;;;;;;;7.40;6.80;;;37.90;29.90;;;31.70;74.30;100703.63;5088779;27;20215;-61
2021/06/07 12:19:56;;;;;;;6.30;5.80;;;38.00;29.80;;;31.16;75.56;100702.88;5088121;27;20251;-62
2021/06/07 12:23:10;;;;;;;6.38;5.70;;;38.10;29.50;;;31.47;82.40;100704.31;5076036;27;20793;-61
2021/06/07 12:30:01;;;;;;;5.50;5.10;;;37.90;29.50;;;31.12;73.97;100704.53;5067974;28;20307;-62
2021/06/07 12:33:14;;;;;;;5.95;5.05;;;37.90;29.60;;;30.88;75.97;100696.06;5076947;27;20234;-60
2021/06/07 12:36:27;;;;;;;5.20;4.80;;;37.80;29.30;;;31.48;69.39;100697.69;5068856;27;20219;-61
2021/06/07 12:39:44;;;;;;;5.28;4.78;;;37.80;29.20;;;30.82;69.83;100691.66;5068812;27;20222;-62
2021/06/07 12:43:01;;;;;;;6.10;4.85;;;37.90;28.60;;;30.83;65.31;100688.59;5067023;27;20254;-62
2021/06/07 12:46:15;;;;;;;5.75;5.25;;;37.80;28.60;;;31.22;69.52;100690.66;5069203;27;20231;-61
2021/06/07 12:49:39;;;;;;;6.18;5.57;;;37.70;28.90;;;32.05;63.09;100682.31;5089303;27;20502;-60
2021/06/07 12:52:50;;;;;;;5.88;5.38;;;37.60;28.80;;;31.49;63.64;100682.75;5090987;27;20504;-62
2021/06/07 12:56:05;;;;;;;5.45;4.95;;;37.80;28.10;;;30.71;70.24;100680.66;5081816;27;20597;-59
2021/06/07 12:59:17;;;;;;;5.22;4.82;;;37.90;28.10;;;31.01;72.78;100676.94;5090990;27;20488;-63
2021/06/07 13:02:35;;;;;;;5.15;4.75;;;37.60;28.70;;;31.36;70.46;100675.91;5072878;27;20476;-60
2021/06/07 13:12:42;;;;;;;6.60;6.05;;;37.40;29.40;;;31.09;69.69;100675.53;5127220;27;20253;-60
2021/06/07 13:15:54;;;;;;;5.60;5.07;;;37.40;29.30;;;31.46;72.83;100668.66;5127825;27;20636;-60
2021/06/07 13:19:23;;;;;;;5.85;5.35;;;37.40;29.10;;;30.63;76.29;100661.91;5127505;27;20456;-61
2021/06/07 13:22:46;;;;;;;5.85;5.35;;;37.50;28.90;;;31.22;73.80;100669.38;5126326;27;20230;-61
2021/06/07 13:25:57;;;;;;;5.80;5.32;;;37.30;29.40;;;32.14;73.08;100666.75;5127084;27;20238;-62
2021/06/07 13:29:34;;;;;;;6.18;5.35;;;37.30;29.40;;;31.02;71.12;100658.41;5125428;27;20574;-61
2021/06/07 13:32:55;;;;;;;5.75;5.35;;;37.30;28.90;;;30.62;73.96;100657.50;5096083;27;20449;-62
2021/06/07 13:36:12;;;;;;;5.68;5.25;;;37.10;28.50;;;30.75;69.93;100655.22;5106915;27;21095;-62
2021/06/07 13:39:26;;;;;;;7.95;5.85;;;36.70;29.10;;;31.24;70.50;100661.63;5106392;27;20590;-61
2021/06/07 13:42:43;;;;;;;6.28;5.60;;;36.50;29.30;;;32.65;66.63;100653.16;5105302;27;20345;-62
2021/06/07 13:46:01;;;;;;;6.18;5.57;;;36.50;29.90;;;31.47;66.78;100650.97;5105740;27;20215;-61
2021/06/07 13:49:18;;;;;;;5.20;4.80;;;36.60;29.20;;;31.66;62.75;100643.63;5106308;27;20561;-62
2021/06/07 13:52:45;;;;;;;5.40;4.90;;;36.70;30.00;;;32.18;62.44;100636.50;5105760;27;20691;-62
2021/06/07 13:56:04;;;;;;;4.88;4.47;;;36.90;29.50;;;31.67;67.68;100640.59;5106394;27;20274;-62
2021/06/07 13:59:25;;;;;;;7.93;4.90;;;37.20;29.40;;;30.77;66.64;100637.28;5103683;27;20608;-62
2021/06/07 14:02:38;;;;;;;4.80;4.40;;;37.20;28.50;;;30.76;71.04;100630.09;5105702;27;20523;-62
2021/06/07 14:05:50;;;;;;;5.43;4.90;;;36.80;28.90;;;30.94;72.35;100636.88;5106127;27;20312;-61
2021/06/07 14:09:10;;;;;;;7.53;5.47;;;36.30;29.50;;;31.25;61.57;100635.63;5109662;27;20499;-61
2021/06/07 14:12:27;;;;;;;4.97;4.68;;;36.10;29.40;;;31.50;63.08;100634.63;5124795;27;20580;-62
2021/06/07 14:15:39;;;;;;;5.63;5.22;;;36.00;29.70;;;31.11;64.30;100628.25;5127794;27;20503;-63
2021/06/07 14:18:52;;;;;;;5.18;4.80;;;35.90;29.30;;;31.13;61.75;100632.41;5099880;27;20685;-61
2021/06/07 14:25:36;;;;;;;5.28;4.80;;;35.60;29.30;;;31.42;58.88;100626.94;5092418;27;20242;-61
2021/06/07 14:28:47;;;;;;;5.35;4.80;;;35.50;29.30;;;31.36;62.08;100625.31;5091223;27;20234;-62
2021/06/07 14:31:58;;;;;;;5.00;4.57;;;35.50;29.10;;;30.99;63.96;100618.34;5091839;27;20501;-61
2021/06/07 14:35:11;;;;;;;4.72;4.32;;;35.60;29.40;;;30.57;58.89;100613.31;5106819;27;20218;-61
2021/06/07 14:38:23;;;;;;;4.55;4.18;;;35.50;29.30;;;31.34;64.21;100610.97;5112144;27;20618;-61